Voyager — C6WC2 — position and weather

sailwx.info

Track history (hours):
 
Tides and Currents Weather Stations Pressure Air Temp Water Temp Dewpoint Dewpoint Depression Visibility Wind Speed Wind Dir Waves Ship Positions

Voyager

Last reported at 2014-Sep-15 21:32 UTC. Time now 2014-Sep-17 05:37 UTC.
Position N 36°32' E 015°19'.

Length 151 m; draft 6 m.

Type: Passenger vessel. MMSI: 309695000.

Date/timePositionNaut miles runAvg speedWind from/ knotsBaromVisibWave heightAir tempDewpointWater temp
2014-Sep-15 21:32N 36°32' E 015°19'1010.4
2014-Sep-15 20:33N 36°26' E 015°09'1010.3
2014-Sep-15 19:33N 36°18' E 015°00'1010.1
2014-Sep-15 18:33N 36°11' E 014°52'1010.2
2014-Sep-15 17:33N 36°04' E 014°43'1010.3
2014-Sep-15 16:33N 35°56' E 014°34'4 1.3
2014-Sep-15 13:32N 35°54' E 014°31'0 0.0
2014-Sep-15 11:17N 35°54' E 014°31'0 0.0
2014-Sep-15 10:32N 35°54' E 014°31'1 0.1
2014-Sep-15 05:23N 35°54' E 014°31'6 7.7
2014-Sep-15 04:34N 35°60' E 014°29'1211.9
2014-Sep-15 03:33N 36°09' E 014°20'1716.5
2014-Sep-15 02:33N 36°20' E 014°05'1817.7
2014-Sep-15 01:33N 36°31' E 013°48'1817.4
2014-Sep-15 00:30N 36°43' E 013°30'1616.7
2014-Sep-14 23:33N 36°53' E 013°15'222 7.6
2014-Sep-13 18:26N 39°00' E 009°24'1315.2
2014-Sep-13 17:33N 39°07' E 009°09'6 5.5
2014-Sep-13 16:28N 39°13' E 009°06'0 0.0
2014-Sep-13 15:22N 39°13' E 009°06'0 0.0
2014-Sep-13 14:31N 39°13' E 009°06'0 0.0
2014-Sep-13 13:25N 39°13' E 009°06'0 0.0
2014-Sep-13 12:31N 39°13' E 009°06'0 0.0
2014-Sep-13 11:25N 39°13' E 009°06'0 0.0
2014-Sep-13 10:28N 39°13' E 009°06'0 0.0
2014-Sep-13 09:33N 39°13' E 009°06'6 6.3
2014-Sep-13 08:33N 39°06' E 009°08'1010.2
2014-Sep-13 07:33N 38°56' E 009°06'2210.8
2014-Sep-13 05:32N 38°49' E 008°40'6712.8
2014-Sep-13 00:17N 39°48' E 008°01'1314.5
2014-Sep-12 23:22N 40°02' E 007°60'227 7.5
2014-Sep-11 17:09N 43°48' E 007°47'17 1.8
2014-Sep-11 07:33N 43°35' E 007°33'1312.5
2014-Sep-11 06:30N 43°25' E 007°21'1212.5
2014-Sep-11 05:33N 43°15' E 007°11'1212.3
2014-Sep-11 04:33N 43°06' E 007°01'1212.2
2014-Sep-11 03:33N 42°56' E 006°51'1211.5
2014-Sep-11 02:31N 42°50' E 006°37'1213.0
2014-Sep-11 01:33N 42°50' E 006°20'1313.2
2014-Sep-11 00:33N 42°50' E 006°02'1313.1
2014-Sep-10 23:33N 42°56' E 005°46'1313.3
2014-Sep-10 22:33N 43°03' E 005°30'1413.6
2014-Sep-10 21:33N 43°13' E 005°17'8 8.1
2014-Sep-10 20:33N 43°21' E 005°20'0 0.1
2014-Sep-10 19:32N 43°21' E 005°20'0 0.0
2014-Sep-10 18:29N 43°21' E 005°20'0 0.0
2014-Sep-10 17:32N 43°21' E 005°20'0 0.0
2014-Sep-10 16:32N 43°21' E 005°20'0 0.0
2014-Sep-10 15:26N 43°21' E 005°20'0 0.0
2014-Sep-10 14:32N 43°21' E 005°20'0 0.0
2014-Sep-10 13:32N 43°21' E 005°20'0 0.0
2014-Sep-10 12:23N 43°21' E 005°20'0 0.0
2014-Sep-10 11:32N 43°21' E 005°20'0 0.0
2014-Sep-10 10:23N 43°21' E 005°20'0 0.0
2014-Sep-10 09:26N 43°21' E 005°20'0 0.0
2014-Sep-10 08:29N 43°21' E 005°20'0 0.0
2014-Sep-10 07:26N 43°21' E 005°20'0 0.0
2014-Sep-10 06:23N 43°21' E 005°20'0 0.3
2014-Sep-10 05:33N 43°21' E 005°19'8 8.3
2014-Sep-10 04:33N 43°16' E 005°11'1313.2
2014-Sep-10 03:33N 43°04' E 005°01'4715.5
2014-Sep-10 00:33N 42°30' E 004°19'1615.6
2014-Sep-09 23:33N 42°18' E 004°04'4815.9
2014-Sep-09 20:33N 41°43' E 003°21'1615.6
2014-Sep-09 19:32N 41°35' E 003°03'1616.3
2014-Sep-09 18:33N 41°29' E 002°43'1815.9
2014-Sep-09 17:24N 41°22' E 002°20'7 8.3
2014-Sep-09 16:33N 41°22' E 002°11'1 0.6
2014-Sep-09 15:21N 41°22' E 002°11'0 0.0
2014-Sep-09 14:24N 41°22' E 002°11'0 0.0
2014-Sep-09 13:33N 41°22' E 002°11'0 0.0
2014-Sep-09 12:21N 41°22' E 002°11'0 0.0
2014-Sep-09 11:33N 41°22' E 002°11'0 0.0
2014-Sep-09 09:21N 41°22' E 002°11'0 0.0
2014-Sep-09 08:21N 41°22' E 002°11'0 0.0
2014-Sep-09 05:24N 41°22' E 002°11'6 6.5
2014-Sep-09 04:31N 41°17' E 002°13'1010.6
2014-Sep-09 03:33N 41°08' E 002°07'1313.1
2014-Sep-09 02:33N 40°56' E 001°59'1414.0
2014-Sep-09 01:33N 40°44' E 001°50'1414.2
2014-Sep-09 00:33N 40°31' E 001°42'1413.8
2014-Sep-08 23:33N 40°19' E 001°34'1413.7
2014-Sep-08 22:33N 40°07' E 001°25'1413.7
2014-Sep-08 21:33N 39°55' E 001°16'1413.7
2014-Sep-08 20:33N 39°43' E 001°08'8614.2
2014-Sep-08 14:29N 38°27' E 000°15'2814.4
2014-Sep-08 12:33N 38°04' W 000°05'1414.2
2014-Sep-08 11:32N 37°52' W 000°15'1414.2
2014-Sep-08 10:33N 37°40' W 000°25'1414.1
2014-Sep-08 09:33N 37°29' W 000°36'1413.9
2014-Sep-08 08:33N 37°20' W 000°49'1514.0
2014-Sep-08 07:30N 37°10' W 001°02'1613.4
2014-Sep-08 06:18N 36°59' W 001°17'345 6.6
2014-Sep-06 02:28N 36°33' W 008°26'  
Track history (hours):
 
Tides and Currents Weather Stations Pressure Air Temp Water Temp Dewpoint Dewpoint Depression Visibility Wind Speed Wind Dir Waves Ship Positions

Voyager

Last reported at 2014-Sep-15 21:32 UTC. Time now 2014-Sep-17 05:37 UTC.
Position N 36°32' E 015°19'.

Length 151 m; draft 6 m.

Type: Passenger vessel. MMSI: 309695000.

Date/timePositionNaut miles runAvg speedWind from/ knotsBaromVisibWave heightAir tempDewpointWater temp
2014-Sep-15 21:32N 36°32' E 015°19'1010.4
2014-Sep-15 20:33N 36°26' E 015°09'1010.3
2014-Sep-15 19:33N 36°18' E 015°00'1010.1
2014-Sep-15 18:33N 36°11' E 014°52'1010.2
2014-Sep-15 17:33N 36°04' E 014°43'1010.3
2014-Sep-15 16:33N 35°56' E 014°34'4 1.3
2014-Sep-15 13:32N 35°54' E 014°31'0 0.0
2014-Sep-15 11:17N 35°54' E 014°31'0 0.0
2014-Sep-15 10:32N 35°54' E 014°31'1 0.1
2014-Sep-15 05:23N 35°54' E 014°31'6 7.7
2014-Sep-15 04:34N 35°60' E 014°29'1211.9
2014-Sep-15 03:33N 36°09' E 014°20'1716.5
2014-Sep-15 02:33N 36°20' E 014°05'1817.7
2014-Sep-15 01:33N 36°31' E 013°48'1817.4
2014-Sep-15 00:30N 36°43' E 013°30'1616.7
2014-Sep-14 23:33N 36°53' E 013°15'222 7.6
2014-Sep-13 18:26N 39°00' E 009°24'1315.2
2014-Sep-13 17:33N 39°07' E 009°09'6 5.5
2014-Sep-13 16:28N 39°13' E 009°06'0 0.0
2014-Sep-13 15:22N 39°13' E 009°06'0 0.0
2014-Sep-13 14:31N 39°13' E 009°06'0 0.0
2014-Sep-13 13:25N 39°13' E 009°06'0 0.0
2014-Sep-13 12:31N 39°13' E 009°06'0 0.0
2014-Sep-13 11:25N 39°13' E 009°06'0 0.0
2014-Sep-13 10:28N 39°13' E 009°06'0 0.0
2014-Sep-13 09:33N 39°13' E 009°06'6 6.3
2014-Sep-13 08:33N 39°06' E 009°08'1010.2
2014-Sep-13 07:33N 38°56' E 009°06'2210.8
2014-Sep-13 05:32N 38°49' E 008°40'6712.8
2014-Sep-13 00:17N 39°48' E 008°01'1314.5
2014-Sep-12 23:22N 40°02' E 007°60'227 7.5
2014-Sep-11 17:09N 43°48' E 007°47'17 1.8
2014-Sep-11 07:33N 43°35' E 007°33'1312.5
2014-Sep-11 06:30N 43°25' E 007°21'1212.5
2014-Sep-11 05:33N 43°15' E 007°11'1212.3
2014-Sep-11 04:33N 43°06' E 007°01'1212.2
2014-Sep-11 03:33N 42°56' E 006°51'1211.5
2014-Sep-11 02:31N 42°50' E 006°37'1213.0
2014-Sep-11 01:33N 42°50' E 006°20'1313.2
2014-Sep-11 00:33N 42°50' E 006°02'1313.1
2014-Sep-10 23:33N 42°56' E 005°46'1313.3
2014-Sep-10 22:33N 43°03' E 005°30'1413.6
2014-Sep-10 21:33N 43°13' E 005°17'8 8.1
2014-Sep-10 20:33N 43°21' E 005°20'0 0.1
2014-Sep-10 19:32N 43°21' E 005°20'0 0.0
2014-Sep-10 18:29N 43°21' E 005°20'0 0.0
2014-Sep-10 17:32N 43°21' E 005°20'0 0.0
2014-Sep-10 16:32N 43°21' E 005°20'0 0.0
2014-Sep-10 15:26N 43°21' E 005°20'0 0.0
2014-Sep-10 14:32N 43°21' E 005°20'0 0.0
2014-Sep-10 13:32N 43°21' E 005°20'0 0.0
2014-Sep-10 12:23N 43°21' E 005°20'0 0.0
2014-Sep-10 11:32N 43°21' E 005°20'0 0.0
2014-Sep-10 10:23N 43°21' E 005°20'0 0.0
2014-Sep-10 09:26N 43°21' E 005°20'0 0.0
2014-Sep-10 08:29N 43°21' E 005°20'0 0.0
2014-Sep-10 07:26N 43°21' E 005°20'0 0.0
2014-Sep-10 06:23N 43°21' E 005°20'0 0.3
2014-Sep-10 05:33N 43°21' E 005°19'8 8.3
2014-Sep-10 04:33N 43°16' E 005°11'1313.2
2014-Sep-10 03:33N 43°04' E 005°01'4715.5
2014-Sep-10 00:33N 42°30' E 004°19'1615.6
2014-Sep-09 23:33N 42°18' E 004°04'4815.9
2014-Sep-09 20:33N 41°43' E 003°21'1615.6
2014-Sep-09 19:32N 41°35' E 003°03'1616.3
2014-Sep-09 18:33N 41°29' E 002°43'1815.9
2014-Sep-09 17:24N 41°22' E 002°20'7 8.3
2014-Sep-09 16:33N 41°22' E 002°11'1 0.6
2014-Sep-09 15:21N 41°22' E 002°11'0 0.0
2014-Sep-09 14:24N 41°22' E 002°11'0 0.0
2014-Sep-09 13:33N 41°22' E 002°11'0 0.0
2014-Sep-09 12:21N 41°22' E 002°11'0 0.0
2014-Sep-09 11:33N 41°22' E 002°11'0 0.0
2014-Sep-09 09:21N 41°22' E 002°11'0 0.0
2014-Sep-09 08:21N 41°22' E 002°11'0 0.0
2014-Sep-09 05:24N 41°22' E 002°11'6 6.5
2014-Sep-09 04:31N 41°17' E 002°13'1010.6
2014-Sep-09 03:33N 41°08' E 002°07'1313.1
2014-Sep-09 02:33N 40°56' E 001°59'1414.0
2014-Sep-09 01:33N 40°44' E 001°50'1414.2
2014-Sep-09 00:33N 40°31' E 001°42'1413.8
2014-Sep-08 23:33N 40°19' E 001°34'1413.7
2014-Sep-08 22:33N 40°07' E 001°25'1413.7
2014-Sep-08 21:33N 39°55' E 001°16'1413.7
2014-Sep-08 20:33N 39°43' E 001°08'8614.2
2014-Sep-08 14:29N 38°27' E 000°15'2814.4
2014-Sep-08 12:33N 38°04' W 000°05'1414.2
2014-Sep-08 11:32N 37°52' W 000°15'1414.2
2014-Sep-08 10:33N 37°40' W 000°25'1414.1
2014-Sep-08 09:33N 37°29' W 000°36'1413.9
2014-Sep-08 08:33N 37°20' W 000°49'1514.0
2014-Sep-08 07:30N 37°10' W 001°02'1613.4
2014-Sep-08 06:18N 36°59' W 001°17'345 6.6
2014-Sep-06 02:28N 36°33' W 008°26'  

Dump ship's entire track history